Time;durP1;ratioP1;P1;durP2;ratioP2;P2;SDS_P1;SDS_P2;PMS_P1;PMS_P2;Temp;Humidity;BMP_temperature;BMP_pressure;BME280_temperature;BME280_humidity;BME280_pressure;Samples;Min_cycle;Max_cycle;Signal;HPM_P1;HPM_P2
2022/04/13 00:02:17;;;;;;;8.30;4.60;;;;;;;14.23;90.49;101180.50;5009805;28;20034;-69
2022/04/13 00:04:42;;;;;;;7.82;4.20;;;;;;;14.23;90.83;101180.50;5012688;28;20545;-68
2022/04/13 00:07:07;;;;;;;13.38;4.35;;;;;;;14.25;90.86;101178.78;5011415;28;20026;-69
2022/04/13 00:09:33;;;;;;;11.52;4.28;;;;;;;14.24;90.52;101177.00;5012185;28;20474;-69
2022/04/13 00:11:59;;;;;;;7.68;4.10;;;;;;;14.27;91.13;101177.00;5010315;28;20120;-69
2022/04/13 00:14:24;;;;;;;10.63;3.65;;;;;;;14.19;91.10;101179.63;5012888;28;20084;-69
2022/04/13 00:16:51;;;;;;;11.20;4.28;;;;;;;14.14;91.88;101181.34;5011712;28;20042;-69
2022/04/13 00:19:17;;;;;;;9.30;4.10;;;;;;;14.15;91.53;101178.69;5010994;28;20033;-69
2022/04/13 00:21:43;;;;;;;14.07;3.80;;;;;;;14.21;91.37;101175.22;5012543;28;20046;-69
2022/04/13 00:24:08;;;;;;;8.95;4.10;;;;;;;14.11;91.90;101176.91;5010677;28;20060;-69
2022/04/13 00:26:34;;;;;;;15.07;4.30;;;;;;;14.08;92.60;101173.34;5014161;28;20105;-70
2022/04/13 00:29:01;;;;;;;10.50;3.92;;;;;;;14.10;92.46;101175.13;5014734;28;20026;-69
2022/04/13 00:31:28;;;;;;;8.73;4.15;;;;;;;14.10;92.84;101177.78;5016502;28;20050;-69
2022/04/13 00:33:53;;;;;;;12.82;4.88;;;;;;;14.09;92.90;101183.94;5014577;28;20026;-69
2022/04/13 00:36:18;;;;;;;11.75;4.10;;;;;;;14.12;92.67;101183.06;5014032;28;20033;-69
2022/04/13 00:38:43;;;;;;;9.52;4.68;;;;;;;14.08;92.92;101192.78;5016351;28;20470;-69
2022/04/13 00:41:09;;;;;;;9.60;4.65;;;;;;;14.08;93.17;101191.88;5016110;28;20038;-69
2022/04/13 00:43:34;;;;;;;14.98;4.90;;;;;;;14.05;93.26;101191.84;5014978;28;20450;-69
2022/04/13 00:46:00;;;;;;;11.00;4.90;;;;;;;14.02;93.66;101198.00;5015627;28;20478;-69
2022/04/13 00:48:28;;;;;;;12.75;4.55;;;;;;;14.02;94.23;101203.31;4996949;28;20441;-69
2022/04/13 00:50:53;;;;;;;8.10;4.60;;;;;;;14.02;94.34;101205.06;5003580;28;20034;-69
2022/04/13 00:53:21;;;;;;;7.75;4.70;;;;;;;14.02;95.04;101203.31;5013940;28;20117;-69
2022/04/13 00:55:48;;;;;;;9.50;4.95;;;;;;;13.99;94.51;101198.88;5014917;28;20438;-69
2022/04/13 00:58:15;;;;;;;12.52;4.93;;;;;;;14.02;94.68;101205.94;5015547;28;20029;-70
2022/04/13 01:00:48;;;;;;;9.23;4.63;;;;;;;14.06;94.29;101210.38;5014670;28;20033;-69
2022/04/13 01:03:19;;;;;;;12.45;5.57;;;;;;;14.06;94.85;101209.50;5014087;28;20414;-69
2022/04/13 01:05:47;;;;;;;10.50;4.70;;;;;;;14.03;94.89;101206.84;5014985;28;20053;-69
2022/04/13 01:08:13;;;;;;;12.43;4.78;;;;;;;14.01;95.20;101209.47;5014537;28;20053;-70
2022/04/13 01:10:43;;;;;;;11.60;5.50;;;;;;;13.93;95.57;101212.06;5015186;28;20454;-69
2022/04/13 01:13:09;;;;;;;11.07;5.38;;;;;;;13.96;95.84;101220.00;5008520;28;20041;-69
2022/04/13 01:15:35;;;;;;;11.45;4.95;;;;;;;13.97;96.28;101218.25;5014550;28;20030;-69
2022/04/13 01:18:00;;;;;;;11.02;5.07;;;;;;;13.93;96.44;101219.09;4993550;28;20057;-69
2022/04/13 01:20:26;;;;;;;14.20;5.88;;;;;;;13.92;96.93;101217.34;5011765;28;20037;-70
2022/04/13 01:22:51;;;;;;;14.93;6.10;;;;;;;13.92;97.45;101214.69;5013591;28;20105;-69
2022/04/13 01:25:17;;;;;;;14.00;6.20;;;;;;;13.88;97.43;101216.41;5014866;28;20134;-69
2022/04/13 01:27:42;;;;;;;14.80;5.57;;;;;;;13.84;98.48;101214.63;5015181;28;20046;-69
2022/04/13 01:30:09;;;;;;;14.55;5.68;;;;;;;13.85;98.34;101212.84;5014626;28;20080;-70
2022/04/13 01:32:35;;;;;;;14.38;5.88;;;;;;;13.85;98.48;101211.09;5013865;28;20038;-69
2022/04/13 01:35:00;;;;;;;13.50;6.20;;;;;;;13.81;98.76;101211.97;5013722;28;20126;-69
2022/04/13 01:37:25;;;;;;;14.43;5.70;;;;;;;13.78;99.15;101212.81;5013903;28;20482;-69
2022/04/13 01:39:51;;;;;;;14.85;6.35;;;;;;;13.82;99.79;101216.34;5015140;28;20370;-70
2022/04/13 01:42:16;;;;;;;17.60;6.75;;;;;;;13.79;99.99;101227.78;5014347;28;20030;-69
2022/04/13 01:44:42;;;;;;;11.18;6.00;;;;;;;13.82;100.00;101233.13;5015259;28;20529;-69
2022/04/13 01:47:09;;;;;;;13.50;5.70;;;;;;;13.79;100.00;101229.56;5013368;28;20026;-69
2022/04/13 01:49:35;;;;;;;10.80;6.13;;;;;;;13.76;100.00;101226.88;5012938;28;20528;-69
2022/04/13 01:52:01;;;;;;;15.15;6.40;;;;;;;13.81;100.00;101239.28;5014219;28;20064;-69
2022/04/13 01:54:27;;;;;;;12.32;5.70;;;;;;;13.71;100.00;101237.41;5013538;28;20030;-69
2022/04/13 01:56:52;;;;;;;14.48;6.88;;;;;;;13.68;100.00;101231.22;5014521;28;20018;-69
2022/04/13 01:59:17;;;;;;;14.88;7.47;;;;;;;13.64;100.00;101232.94;5014687;28;20038;-69
2022/04/13 02:01:43;;;;;;;10.25;6.30;;;;;;;13.62;100.00;101227.63;5012768;28;20064;-69
2022/04/13 02:04:23;;;;;;;11.63;6.82;;;;;;;13.62;100.00;101232.03;5011698;28;20143;-69
2022/04/13 02:06:50;;;;;;;13.82;6.40;;;;;;;13.59;100.00;101229.34;5013375;28;20021;-69
2022/04/13 02:09:17;;;;;;;18.38;6.93;;;;;;;13.50;100.00;101232.78;5013965;28;20029;-69
2022/04/13 02:11:43;;;;;;;18.40;6.60;;;;;;;13.54;100.00;101241.63;5014534;28;20036;-69
2022/04/13 02:14:08;;;;;;;11.73;6.28;;;;;;;13.56;100.00;101234.63;5014056;28;20084;-69
2022/04/13 02:16:34;;;;;;;15.18;7.05;;;;;;;13.57;100.00;101234.63;5012573;28;20026;-69
2022/04/13 02:19:00;;;;;;;13.32;6.80;;;;;;;13.53;100.00;101240.75;5008270;28;20022;-69
2022/04/13 02:21:25;;;;;;;13.90;6.72;;;;;;;13.56;100.00;101256.63;5014320;28;20127;-69
2022/04/13 02:23:51;;;;;;;15.65;7.03;;;;;;;13.58;100.00;101256.66;4995877;28;20044;-69
2022/04/13 02:26:17;;;;;;;12.38;7.05;;;;;;;13.57;100.00;101254.91;5012711;28;20026;-69
2022/04/13 02:28:42;;;;;;;17.90;7.45;;;;;;;13.53;100.00;101261.03;5012804;28;20069;-69
2022/04/13 02:31:07;;;;;;;16.75;7.50;;;;;;;13.55;100.00;101260.19;5012962;28;20034;-69
2022/04/13 02:33:33;;;;;;;13.90;7.03;;;;;;;13.58;100.00;101267.22;5013399;28;20433;-69
2022/04/13 02:35:58;;;;;;;12.32;7.22;;;;;;;13.59;100.00;101261.06;5014386;28;20037;-69
2022/04/13 02:38:25;;;;;;;13.52;7.18;;;;;;;13.53;100.00;101255.75;5013882;28;20025;-69
2022/04/13 02:40:50;;;;;;;20.48;8.48;;;;;;;13.47;100.00;101252.16;5012639;28;20197;-69
2022/04/13 02:43:16;;;;;;;16.67;7.03;;;;;;;13.48;100.00;101253.94;5012791;28;20030;-69
2022/04/13 02:45:41;;;;;;;20.50;8.13;;;;;;;13.41;100.00;101256.47;5014262;28;20010;-69
2022/04/13 02:48:07;;;;;;;13.65;7.35;;;;;;;13.40;100.00;101249.41;4994100;28;20466;-69
2022/04/13 02:50:33;;;;;;;14.23;8.32;;;;;;;13.40;100.00;101252.97;5013131;28;20405;-69
2022/04/13 02:52:59;;;;;;;16.63;7.70;;;;;;;13.39;100.00;101259.13;5013182;28;20035;-69
2022/04/13 02:55:24;;;;;;;16.42;7.43;;;;;;;13.35;100.00;101259.91;5011809;28;20029;-69
2022/04/13 02:57:49;;;;;;;17.73;7.85;;;;;;;13.26;100.00;101249.22;5010559;28;20062;-69
2022/04/13 03:00:15;;;;;;;18.45;7.85;;;;;;;13.24;100.00;101248.31;4995123;28;20057;-69
2022/04/13 03:02:41;;;;;;;15.93;7.88;;;;;;;13.21;100.00;101256.19;5013215;28;20030;-68
2022/04/13 03:05:08;;;;;;;17.50;7.82;;;;;;;13.22;100.00;101256.22;5013058;28;20049;-69
2022/04/13 03:07:33;;;;;;;19.98;7.95;;;;;;;13.25;100.00;101268.59;5012818;28;20026;-69
2022/04/13 03:09:59;;;;;;;16.15;7.72;;;;;;;13.24;100.00;101266.81;5012770;28;20022;-70
2022/04/13 03:12:25;;;;;;;16.60;7.50;;;;;;;13.19;100.00;101271.19;5013054;28;20470;-69
2022/04/13 03:14:51;;;;;;;13.35;7.55;;;;;;;13.16;100.00;101272.88;5012146;28;20113;-69
2022/04/13 03:17:17;;;;;;;15.15;7.93;;;;;;;13.18;100.00;101274.66;5009850;28;20445;-69
2022/04/13 03:19:42;;;;;;;14.50;7.72;;;;;;;13.18;100.00;101290.53;5013599;28;20026;-69
2022/04/13 03:22:07;;;;;;;18.67;8.35;;;;;;;13.14;100.00;101285.22;4994908;28;20061;-69
2022/04/13 03:24:34;;;;;;;19.85;8.63;;;;;;;13.19;100.00;101279.09;5011591;28;20025;-68
2022/04/13 03:26:59;;;;;;;13.02;8.48;;;;;;;13.22;100.00;101276.50;4994406;28;20088;-69
2022/04/13 03:29:25;;;;;;;11.88;8.57;;;;;;;13.24;100.00;101291.50;5012847;28;20073;-69
2022/04/13 03:31:51;;;;;;;13.38;8.45;;;;;;;13.24;100.00;101301.16;5013376;28;20456;-69
2022/04/13 03:34:20;;;;;;;17.05;8.35;;;;;;;13.22;100.00;101302.91;5011574;28;20025;-68
2022/04/13 03:36:48;;;;;;;11.68;7.43;;;;;;;13.22;100.00;101300.28;5012339;28;20113;-69
2022/04/13 03:39:14;;;;;;;11.95;6.95;;;;;;;13.18;100.00;101303.75;5012840;28;20017;-68
2022/04/13 03:41:40;;;;;;;13.02;8.32;;;;;;;13.16;100.00;101299.31;5011644;28;20108;-68
2022/04/13 03:44:06;;;;;;;15.45;8.45;;;;;;;13.08;100.00;101303.63;5011962;28;20145;-68
2022/04/13 03:46:32;;;;;;;12.95;7.45;;;;;;;13.06;100.00;101308.00;5012780;28;20056;-69
2022/04/13 03:48:57;;;;;;;13.65;7.63;;;;;;;13.04;100.00;101309.72;5012483;28;20036;-69
2022/04/13 03:51:23;;;;;;;17.73;8.30;;;;;;;13.07;100.00;101315.03;5013262;28;20108;-68
2022/04/13 03:53:48;;;;;;;19.80;8.02;;;;;;;13.07;100.00;101308.88;5011570;28;20036;-69
2022/04/13 03:56:14;;;;;;;17.95;8.38;;;;;;;13.07;100.00;101309.75;5011380;28;20121;-68
2022/04/13 03:58:42;;;;;;;15.73;7.90;;;;;;;13.02;100.00;101310.56;5015067;28;20121;-69
2022/04/13 04:01:08;;;;;;;16.50;8.80;;;;;;;12.99;100.00;101311.41;5014956;28;20025;-69
2022/04/13 04:03:34;;;;;;;15.10;8.43;;;;;;;13.03;100.00;101310.59;5014337;28;20026;-69
2022/04/13 04:06:01;;;;;;;15.88;8.73;;;;;;;12.92;100.00;101322.75;5016266;28;20030;-68
2022/04/13 04:08:27;;;;;;;16.88;9.63;;;;;;;12.98;100.00;101320.19;5016776;28;20038;-69
2022/04/13 04:10:53;;;;;;;15.95;9.48;;;;;;;12.90;100.00;101327.13;5015985;28;20100;-69
2022/04/13 04:13:18;;;;;;;18.52;9.57;;;;;;;12.86;100.00;101327.94;5016625;28;20488;-68
2022/04/13 04:15:43;;;;;;;18.48;9.15;;;;;;;12.90;100.00;101327.13;5016718;28;20029;-69
2022/04/13 04:18:09;;;;;;;18.92;9.43;;;;;;;12.79;100.00;101327.88;5009162;28;20390;-69
2022/04/13 04:20:34;;;;;;;17.60;9.25;;;;;;;12.74;100.00;101329.53;4994971;28;20054;-69
2022/04/13 04:23:00;;;;;;;24.67;12.35;;;;;;;12.75;100.00;101328.69;5015365;28;20026;-68
2022/04/13 04:25:25;;;;;;;24.98;11.50;;;;;;;12.67;100.00;101325.03;5012631;28;20113;-69
2022/04/13 04:27:51;;;;;;;18.52;10.50;;;;;;;12.54;100.00;101334.50;5016598;28;20489;-69
2022/04/13 04:30:16;;;;;;;16.00;9.30;;;;;;;12.55;100.00;101340.69;5015470;28;20144;-69
2022/04/13 04:32:41;;;;;;;18.48;9.43;;;;;;;12.55;100.00;101341.56;5014441;28;20378;-69
2022/04/13 04:35:08;;;;;;;18.67;10.45;;;;;;;12.51;100.00;101344.09;5016501;28;20026;-69
2022/04/13 04:37:33;;;;;;;22.10;10.95;;;;;;;12.42;100.00;101358.06;5014505;28;20501;-69
2022/04/13 04:39:59;;;;;;;18.85;10.52;;;;;;;12.36;100.00;101356.19;5016010;28;20022;-69
2022/04/13 04:42:25;;;;;;;20.08;10.20;;;;;;;12.36;100.00;101363.22;5014294;28;20054;-71
2022/04/13 04:44:57;;;;;;;19.67;10.70;;;;;;;12.30;100.00;101366.63;5015657;28;20025;-69
2022/04/13 04:47:24;;;;;;;20.60;10.85;;;;;;;12.25;100.00;101365.66;5010457;28;20091;-69
2022/04/13 04:49:49;;;;;;;21.48;10.93;;;;;;;12.24;100.00;101369.19;5016255;28;20030;-69
2022/04/13 04:52:14;;;;;;;22.05;10.57;;;;;;;12.12;100.00;101373.34;5015199;28;20030;-69
2022/04/13 04:54:40;;;;;;;18.33;10.85;;;;;;;12.12;100.00;101376.00;5014946;28;20466;-69
2022/04/13 04:57:05;;;;;;;15.68;10.38;;;;;;;12.13;100.00;101375.13;5013813;28;20034;-69
2022/04/13 04:59:31;;;;;;;21.52;10.60;;;;;;;12.20;100.00;101377.91;5015331;28;20076;-69
2022/04/13 05:01:56;;;;;;;20.02;10.40;;;;;;;12.17;100.00;101375.19;5014535;28;20037;-68
2022/04/13 05:04:22;;;;;;;17.40;10.52;;;;;;;12.10;100.00;101385.63;5014957;28;20034;-68
2022/04/13 05:06:47;;;;;;;19.88;10.57;;;;;;;12.11;100.00;101384.78;5014516;28;20121;-69
2022/04/13 05:09:12;;;;;;;20.10;9.98;;;;;;;12.09;100.00;101389.13;5016015;28;20061;-68
2022/04/13 05:11:38;;;;;;;21.85;10.85;;;;;;;12.11;100.00;101387.44;4999456;28;20026;-69
2022/04/13 05:14:04;;;;;;;18.45;10.00;;;;;;;12.08;100.00;101384.72;5016190;28;20072;-68
2022/04/13 05:16:30;;;;;;;18.25;9.50;;;;;;;12.08;100.00;101386.47;5015012;28;20465;-72
2022/04/13 05:18:55;;;;;;;17.65;8.27;;;;;;;12.05;100.00;101397.84;4997842;28;20072;-72
2022/04/13 05:21:20;;;;;;;20.38;10.13;;;;;;;12.05;100.00;101386.41;5014367;28;20080;-72
2022/04/13 05:23:46;;;;;;;18.58;9.73;;;;;;;12.03;100.00;101394.31;5014754;28;20022;-72
2022/04/13 05:26:11;;;;;;;14.43;8.45;;;;;;;12.06;100.00;101399.63;5015317;28;20462;-73
2022/04/13 05:28:37;;;;;;;17.83;8.25;;;;;;;12.06;100.00;101398.72;5015068;28;20390;-73
2022/04/13 05:31:02;;;;;;;16.92;7.60;;;;;;;12.05;100.00;101408.41;5016208;28;20033;-72
2022/04/13 05:33:28;;;;;;;17.50;8.40;;;;;;;12.08;100.00;101408.44;5014410;28;20084;-72
2022/04/13 05:35:53;;;;;;;17.80;8.02;;;;;;;12.13;100.00;101400.63;4996631;28;20121;-72
2022/04/13 05:38:19;;;;;;;16.63;8.70;;;;;;;12.11;100.00;101413.81;5014186;28;20029;-72
2022/04/13 05:40:45;;;;;;;15.27;7.65;;;;;;;12.13;100.00;101419.09;5015067;28;20470;-72
2022/04/13 05:43:10;;;;;;;17.70;8.10;;;;;;;12.19;100.00;101420.97;5011179;28;20045;-72
2022/04/13 05:45:36;;;;;;;15.18;7.55;;;;;;;12.18;100.00;101417.44;5000394;28;20079;-72
2022/04/13 05:48:01;;;;;;;18.52;8.77;;;;;;;12.25;100.00;101423.72;5014495;28;20029;-72
2022/04/13 05:50:27;;;;;;;19.58;8.02;;;;;;;12.28;100.00;101429.06;5014196;28;20018;-71
2022/04/13 05:52:52;;;;;;;14.00;7.10;;;;;;;12.28;100.00;101436.97;5014742;28;20032;-72
2022/04/13 05:55:18;;;;;;;16.00;7.57;;;;;;;12.26;100.00;101439.59;4996360;28;20037;-72
2022/04/13 05:57:43;;;;;;;15.25;7.70;;;;;;;12.33;100.00;101440.59;5013698;28;20049;-72
2022/04/13 06:00:11;;;;;;;12.85;6.35;;;;;;;12.40;100.00;101442.50;4995972;28;20061;-72
2022/04/13 06:02:37;;;;;;;15.57;7.97;;;;;;;12.50;100.00;101447.94;5013062;28;20091;-72
2022/04/13 06:05:06;;;;;;;17.63;8.27;;;;;;;12.56;100.00;101455.94;5014405;28;20022;-72
2022/04/13 06:07:32;;;;;;;15.93;7.47;;;;;;;12.56;100.00;101453.31;5014108;28;20030;-71
2022/04/13 06:10:01;;;;;;;16.63;6.90;;;;;;;12.49;100.00;101449.66;5013417;28;20027;-72
2022/04/13 06:12:27;;;;;;;15.73;6.82;;;;;;;12.55;100.00;101460.34;4996623;28;20040;-72
2022/04/13 06:15:03;;;;;;;19.15;7.75;;;;;;;12.69;100.00;101465.88;5014580;28;20532;-72
2022/04/13 06:17:28;;;;;;;15.18;7.25;;;;;;;12.75;100.00;101459.81;5014474;28;20022;-72
2022/04/13 06:19:53;;;;;;;13.68;6.47;;;;;;;12.70;100.00;101462.38;5013911;28;20024;-72
2022/04/13 06:22:19;;;;;;;18.08;7.05;;;;;;;12.66;100.00;101471.13;4996037;28;20097;-72
2022/04/13 06:24:44;;;;;;;11.18;6.65;;;;;;;12.73;100.00;101473.00;5014363;28;20050;-72
2022/04/13 06:27:09;;;;;;;12.35;6.55;;;;;;;12.75;100.00;101471.28;5013280;28;20156;-72
2022/04/13 06:29:34;;;;;;;10.45;6.18;;;;;;;12.72;100.00;101478.25;5013816;28;20446;-72
2022/04/13 06:32:00;;;;;;;17.45;6.15;;;;;;;12.74;100.00;101474.78;5014438;28;20029;-73
2022/04/13 06:34:25;;;;;;;15.65;6.18;;;;;;;12.72;100.00;101481.78;4993498;28;20068;-72
2022/04/13 06:36:50;;;;;;;12.15;6.25;;;;;;;12.74;100.00;101485.34;5012255;28;20033;-72
2022/04/13 06:39:16;;;;;;;15.32;7.05;;;;;;;12.79;100.00;101494.25;5013912;28;20042;-72
2022/04/13 06:41:41;;;;;;;18.17;7.47;;;;;;;12.80;100.00;101498.66;5014206;28;20088;-72
2022/04/13 06:44:06;;;;;;;10.07;5.85;;;;;;;12.86;100.00;101511.09;5014244;28;20026;-72
2022/04/13 06:46:34;;;;;;;11.88;6.53;;;;;;;12.85;100.00;101508.44;5012991;28;20116;-72
2022/04/13 06:48:59;;;;;;;21.95;8.20;;;;;;;12.81;100.00;101513.63;5014112;28;20028;-72
2022/04/13 06:51:24;;;;;;;17.17;6.95;;;;;;;12.94;100.00;101524.41;5014047;28;20033;-72
2022/04/13 06:53:50;;;;;;;18.25;7.05;;;;;;;12.92;100.00;101521.75;4996477;28;20547;-72
2022/04/13 06:56:15;;;;;;;15.57;6.63;;;;;;;12.95;100.00;101520.91;5013407;28;20081;-72
2022/04/13 06:58:42;;;;;;;16.42;7.03;;;;;;;12.99;100.00;101533.31;5013133;28;20034;-72
2022/04/13 07:01:08;;;;;;;11.43;6.82;;;;;;;12.97;100.00;101524.50;4997127;28;20482;-72
2022/04/13 07:03:34;;;;;;;13.07;6.90;;;;;;;13.03;100.00;101532.50;4996276;28;20025;-72
2022/04/13 07:05:59;;;;;;;15.55;6.70;;;;;;;13.12;100.00;101532.66;4995843;28;20022;-72
2022/04/13 07:08:24;;;;;;;15.30;6.53;;;;;;;13.21;100.00;101538.97;5013274;28;20068;-72
2022/04/13 07:10:50;;;;;;;13.80;6.65;;;;;;;13.27;100.00;101536.44;4994440;28;20030;-72
2022/04/13 07:13:16;;;;;;;13.75;6.43;;;;;;;13.41;100.00;101542.00;5012574;28;20041;-72
2022/04/13 07:15:42;;;;;;;18.45;7.40;;;;;;;13.47;100.00;101536.81;4995087;28;20036;-72
2022/04/13 07:18:09;;;;;;;14.43;6.95;;;;;;;13.46;100.00;101550.88;5008224;28;20482;-72
2022/04/13 07:20:34;;;;;;;16.95;8.23;;;;;;;13.44;100.00;101542.94;5011234;28;20048;-72
2022/04/13 07:23:00;;;;;;;19.58;7.65;;;;;;;13.39;100.00;101544.59;5011616;28;20034;-72
2022/04/13 07:25:25;;;;;;;19.55;7.70;;;;;;;13.42;100.00;101549.94;5015098;28;20033;-72
2022/04/13 07:27:50;;;;;;;16.15;7.03;;;;;;;13.43;100.00;101550.81;5013276;28;20488;-72
2022/04/13 07:30:16;;;;;;;11.95;6.50;;;;;;;13.49;100.00;101549.16;5012918;28;20040;-72
2022/04/13 07:32:44;;;;;;;13.55;7.40;;;;;;;13.57;100.00;101551.94;5011726;28;20113;-68
2022/04/13 07:35:10;;;;;;;18.98;6.32;;;;;;;13.58;100.00;101563.38;5013096;28;20115;-72
2022/04/13 07:37:35;;;;;;;17.98;6.63;;;;;;;13.66;100.00;101564.44;5012002;28;20050;-72
2022/04/13 07:40:00;;;;;;;13.15;6.63;;;;;;;13.81;100.00;101564.66;5012171;28;20033;-72
2022/04/13 07:42:27;;;;;;;16.27;7.88;;;;;;;13.74;100.00;101572.47;4995170;28;20542;-72
2022/04/13 07:44:54;;;;;;;13.30;6.70;;;;;;;13.80;100.00;101577.84;5013212;28;20049;-74
2022/04/13 07:47:20;;;;;;;16.55;6.82;;;;;;;13.94;100.00;101581.56;4994724;28;20124;-73
2022/04/13 07:49:46;;;;;;;18.73;7.70;;;;;;;13.81;100.00;101585.81;5013138;28;20026;-73
2022/04/13 07:52:13;;;;;;;13.50;7.10;;;;;;;13.75;100.00;101590.13;5012419;28;20025;-73
2022/04/13 07:54:38;;;;;;;15.20;7.25;;;;;;;13.72;100.00;101583.00;5012057;28;20421;-74
2022/04/13 07:57:04;;;;;;;19.27;6.97;;;;;;;13.66;100.00;101588.22;5011218;28;20049;-74
2022/04/13 07:59:29;;;;;;;15.02;6.80;;;;;;;13.64;100.00;101598.75;5012231;28;20088;-74
2022/04/13 08:01:55;;;;;;;21.75;8.30;;;;;;;13.67;100.00;101597.91;5012749;28;20129;-75
2022/04/13 08:04:20;;;;;;;17.67;6.90;;;;;;;13.70;100.00;101592.69;5013123;28;20026;-74
2022/04/13 08:06:46;;;;;;;13.30;6.38;;;;;;;13.69;100.00;101590.91;5011059;28;20034;-72
2022/04/13 08:09:11;;;;;;;15.35;6.75;;;;;;;13.69;100.00;101596.19;4995531;28;20048;-73
2022/04/13 08:11:37;;;;;;;20.98;6.40;;;;;;;13.75;100.00;101583.06;4995246;28;20038;-75
2022/04/13 08:14:02;;;;;;;13.73;6.30;;;;;;;13.80;100.00;101591.97;5010198;28;20472;-72
2022/04/13 08:16:28;;;;;;;15.85;6.13;;;;;;;13.95;100.00;101593.06;5001861;28;21298;-73
2022/04/13 08:18:53;;;;;;;16.50;6.75;;;;;;;14.00;100.00;101596.69;5012474;28;20041;-73
2022/04/13 08:21:18;;;;;;;19.10;6.00;;;;;;;13.88;100.00;101593.84;4995280;28;20509;-74
2022/04/13 08:23:44;;;;;;;17.00;6.20;;;;;;;13.81;100.00;101604.31;5012603;28;20030;-74
2022/04/13 08:26:09;;;;;;;12.90;5.82;;;;;;;13.87;100.00;101610.59;5014636;28;20053;-74
2022/04/13 08:28:34;;;;;;;14.40;5.80;;;;;;;13.91;100.00;101613.28;5012809;28;20038;-73
2022/04/13 08:31:02;;;;;;;9.55;5.47;;;;;;;13.91;100.00;101623.00;5013244;28;20123;-75
2022/04/13 08:33:27;;;;;;;17.67;6.13;;;;;;;13.87;100.00;101615.88;5007886;28;20382;-73
2022/04/13 08:35:52;;;;;;;17.58;6.28;;;;;;;13.94;100.00;101623.91;5010885;28;20030;-74
2022/04/13 08:38:19;;;;;;;12.85;5.90;;;;;;;14.03;100.00;101622.28;5011586;28;20030;-74
2022/04/13 08:40:51;;;;;;;19.60;6.38;;;;;;;14.06;100.00;101628.50;5010581;28;20393;-74
2022/04/13 08:43:25;;;;;;;12.85;6.20;;;;;;;14.18;100.00;101618.97;5012213;28;20418;-73
2022/04/13 08:45:55;;;;;;;18.52;7.47;;;;;;;14.24;100.00;101621.69;5014500;28;20018;-73
2022/04/13 08:48:23;;;;;;;17.67;6.93;;;;;;;14.27;100.00;101613.78;4993508;28;20034;-74
2022/04/13 08:50:53;;;;;;;16.85;7.82;;;;;;;14.26;100.00;101614.69;5016244;28;20034;-73
2022/04/13 08:53:24;;;;;;;20.63;7.88;;;;;;;14.18;100.00;101619.84;5014545;28;20037;-73
2022/04/13 08:55:53;;;;;;;12.82;8.07;;;;;;;14.25;100.00;101620.84;5014885;28;20041;-74
2022/04/13 08:58:40;;;;;;;18.20;9.00;;;;;;;14.25;100.00;101623.47;5015671;28;20030;-74
2022/04/13 09:01:28;;;;;;;18.58;8.18;;;;;;;14.23;100.00;101628.75;4998248;28;20485;-73
2022/04/13 09:03:57;;;;;;;20.65;8.05;;;;;;;14.27;100.00;101629.66;5010661;28;20056;-73
2022/04/13 09:06:25;;;;;;;17.83;8.15;;;;;;;14.30;100.00;101633.25;5015284;28;20037;-73
2022/04/13 09:08:58;;;;;;;16.00;8.40;;;;;;;14.29;100.00;101646.47;5015210;28;20034;-73
2022/04/13 09:11:24;;;;;;;19.27;7.47;;;;;;;14.31;100.00;101645.63;5015512;28;20034;-74
2022/04/13 09:13:50;;;;;;;15.80;8.63;;;;;;;14.28;100.00;101642.97;5016025;28;20037;-73
2022/04/13 09:16:16;;;;;;;14.75;8.02;;;;;;;14.33;100.00;101648.31;5014898;28;20037;-73
2022/04/13 09:18:42;;;;;;;17.52;7.93;;;;;;;14.42;100.00;101668.72;5015608;28;20389;-76
2022/04/13 09:21:08;;;;;;;15.07;8.02;;;;;;;14.43;100.00;101674.06;5014713;28;20194;-76
2022/04/13 09:23:33;;;;;;;16.65;8.05;;;;;;;14.44;100.00;101670.50;5015009;28;20021;-76
2022/04/13 09:26:00;;;;;;;15.52;7.43;;;;;;;14.40;100.00;101668.69;4997679;28;20030;-76
2022/04/13 09:28:26;;;;;;;18.05;8.60;;;;;;;14.33;100.00;101680.06;4998207;28;20026;-75
2022/04/13 09:30:53;;;;;;;15.40;7.32;;;;;;;14.34;100.00;101687.16;5018238;28;20104;-76
2022/04/13 09:33:18;;;;;;;14.95;6.97;;;;;;;14.34;100.00;101672.16;5016008;28;20025;-75
2022/04/13 09:35:44;;;;;;;15.73;7.85;;;;;;;14.44;100.00;101669.63;5015597;28;20025;-76
2022/04/13 09:38:09;;;;;;;17.20;7.18;;;;;;;14.50;100.00;101678.56;4997869;28;20113;-76
2022/04/13 09:40:38;;;;;;;14.63;6.35;;;;;;;14.55;100.00;101680.38;4997514;28;20048;-74
2022/04/13 09:43:04;;;;;;;18.45;6.57;;;;;;;14.61;100.00;101696.34;4997697;28;20030;-76
2022/04/13 09:45:34;;;;;;;14.20;6.07;;;;;;;14.68;100.00;101698.25;5015169;28;20392;-75
2022/04/13 09:47:59;;;;;;;16.80;6.70;;;;;;;14.69;100.00;101705.34;4998392;28;20080;-75
2022/04/13 09:50:27;;;;;;;18.05;7.03;;;;;;;14.63;100.00;101697.28;5015194;28;20053;-75
2022/04/13 09:52:55;;;;;;;24.40;6.70;;;;;;;14.65;99.95;101700.88;5014203;28;20030;-72
2022/04/13 09:55:24;;;;;;;15.50;6.55;;;;;;;14.60;100.00;101699.88;5009268;28;20030;-75
2022/04/13 09:57:49;;;;;;;18.92;6.68;;;;;;;14.64;100.00;101693.78;5012397;28;20033;-75
2022/04/13 10:00:16;;;;;;;11.18;6.93;;;;;;;14.66;100.00;101702.63;4996311;28;20029;-74
2022/04/13 10:02:42;;;;;;;14.52;6.68;;;;;;;14.61;100.00;101701.63;5013345;28;20397;-73
2022/04/13 10:05:19;;;;;;;17.20;6.28;;;;;;;14.59;100.00;101709.56;5014856;28;20028;-75
2022/04/13 10:07:45;;;;;;;11.50;6.25;;;;;;;14.49;100.00;101720.91;5013093;28;20045;-75
2022/04/13 10:10:24;;;;;;;16.70;7.03;;;;;;;14.39;100.00;101722.53;5014682;28;20038;-74
2022/04/13 10:12:49;;;;;;;20.58;7.30;;;;;;;14.44;100.00;101712.00;5014700;28;20036;-75
2022/04/13 10:15:15;;;;;;;18.20;6.15;;;;;;;14.37;100.00;101718.97;5013901;28;20432;-76
2022/04/13 10:17:41;;;;;;;18.63;6.60;;;;;;;14.30;100.00;101725.91;5013333;28;20114;-75
2022/04/13 10:20:08;;;;;;;20.02;6.35;;;;;;;14.32;100.00;101726.84;5015434;28;20096;-76
2022/04/13 10:22:33;;;;;;;11.32;5.95;;;;;;;14.40;100.00;101726.94;5014379;28;20081;-76
2022/04/13 10:25:20;;;;;;;18.63;6.90;;;;;;;14.33;100.00;101728.59;5014428;28;20025;-74
2022/04/13 10:27:53;;;;;;;16.27;6.95;;;;;;;14.37;100.00;101724.25;4977617;28;20033;-74
2022/04/13 10:30:27;;;;;;;21.02;7.75;;;;;;;14.39;100.00;101719.91;5013300;28;20052;-74
2022/04/13 10:33:14;;;;;;;23.90;8.75;;;;;;;14.38;100.00;101728.69;5013937;28;20454;-74
2022/04/13 10:35:41;;;;;;;18.48;7.93;;;;;;;14.29;100.00;101728.56;5013966;28;20033;-74
2022/04/13 10:38:08;;;;;;;19.88;8.90;;;;;;;14.28;100.00;101737.34;5013013;28;20401;-75
2022/04/13 10:40:41;;;;;;;15.07;8.98;;;;;;;14.39;100.00;101729.56;5015062;28;20058;-75
2022/04/13 10:43:08;;;;;;;22.75;9.10;;;;;;;14.41;100.00;101731.38;5014034;28;20548;-75
2022/04/13 10:45:38;;;;;;;15.38;8.63;;;;;;;14.44;100.00;101731.41;5013616;28;20545;-74
2022/04/13 10:48:09;;;;;;;14.65;8.15;;;;;;;14.64;100.00;101738.81;5013719;28;20025;-74
2022/04/13 10:50:37;;;;;;;14.73;7.30;;;;;;;14.53;100.00;101740.38;5013629;28;20109;-73
2022/04/13 10:53:14;;;;;;;18.20;8.40;;;;;;;14.66;100.00;101737.97;5012517;28;20029;-73
2022/04/13 10:55:41;;;;;;;14.35;7.47;;;;;;;14.84;100.00;101729.38;5014084;28;20030;-73
2022/04/13 10:58:35;;;;;;;14.02;7.50;;;;;;;14.90;100.00;101738.28;4995684;28;20489;-73
2022/04/13 11:01:11;;;;;;;17.98;7.43;;;;;;;15.01;99.98;101734.00;5013355;28;20034;-73
2022/04/13 11:03:38;;;;;;;15.93;7.32;;;;;;;15.18;99.16;101737.75;4981753;28;20030;-74
2022/04/13 11:06:05;;;;;;;17.00;8.45;;;;;;;15.20;97.95;101735.09;4995357;28;20536;-75
2022/04/13 11:08:57;;;;;;;16.77;7.90;;;;;;;15.22;97.16;101738.69;4994489;28;20029;-74